createdAt,value
2022-10-03T12:21:51.191Z,1.52
2022-10-03T12:27:42.253Z,1.50
2022-10-03T12:30:28.048Z,1.60
2022-10-03T12:33:30.494Z,1.40
2022-10-03T12:36:36.212Z,1.92
2022-10-03T12:39:31.148Z,1.70
2022-10-03T12:42:25.460Z,1.63
2022-10-03T12:51:44.982Z,1.50
2022-10-03T12:54:51.543Z,1.40
2022-10-03T12:58:03.215Z,1.80
2022-10-03T13:00:43.929Z,1.73
2022-10-03T13:03:26.752Z,2.13
2022-10-03T13:06:04.985Z,1.52
2022-10-03T13:09:05.752Z,1.40
2022-10-03T13:12:31.417Z,1.80
2022-10-03T13:15:22.451Z,1.45
2022-10-03T13:18:03.844Z,1.77
2022-10-03T13:20:42.502Z,1.33
2022-10-03T13:23:42.881Z,1.40
2022-10-03T13:26:30.376Z,1.30
2022-10-03T13:29:23.808Z,1.60
2022-10-03T13:32:33.394Z,1.35
2022-10-03T13:35:52.041Z,1.63
2022-10-03T13:38:59.461Z,1.45
2022-10-03T13:41:45.496Z,1.60
2022-10-03T13:48:03.874Z,1.20
2022-10-03T13:51:01.188Z,1.27
2022-10-03T13:54:00.324Z,1.98
2022-10-03T13:56:29.240Z,1.50
2022-10-03T13:59:26.104Z,1.13
2022-10-03T14:02:07.648Z,1.90
2022-10-03T14:04:40.183Z,1.60
2022-10-03T14:07:43.754Z,1.58
2022-10-03T14:10:10.743Z,1.52
2022-10-03T14:12:56.538Z,1.70
2022-10-03T14:15:48.575Z,1.52
2022-10-03T14:18:32.719Z,1.60
2022-10-03T14:21:19.772Z,2.33
2022-10-03T14:23:54.182Z,2.00
2022-10-03T14:26:53.405Z,1.70
2022-10-03T14:29:36.415Z,1.90
2022-10-03T14:32:46.839Z,1.33
2022-10-03T14:36:25.112Z,1.60
2022-10-03T14:39:20.894Z,1.80
2022-10-03T14:41:59.521Z,1.77
2022-10-03T14:44:42.356Z,1.98
2022-10-03T14:47:19.795Z,1.80
2022-10-03T14:49:59.998Z,2.03
2022-10-03T14:52:49.846Z,1.85
2022-10-03T14:55:21.241Z,2.00
2022-10-03T14:58:17.586Z,1.70
2022-10-03T15:00:55.533Z,1.80
2022-10-03T15:03:49.227Z,1.60
2022-10-03T15:06:35.792Z,1.98
2022-10-03T15:09:12.459Z,1.90
2022-10-03T15:12:24.124Z,2.40
2022-10-03T15:15:43.493Z,1.77
2022-10-03T15:18:24.896Z,1.83
2022-10-03T15:21:04.839Z,1.38
2022-10-03T15:23:41.782Z,1.35
2022-10-03T15:26:36.466Z,1.60
2022-10-03T15:29:11.266Z,1.27
2022-10-03T15:32:01.413Z,1.40
2022-10-03T15:34:40.388Z,2.13
2022-10-03T15:37:26.144Z,2.60
2022-10-03T15:40:05.658Z,2.00
2022-10-03T15:43:11.474Z,1.92
2022-10-03T15:45:56.785Z,2.25
2022-10-03T15:48:28.148Z,2.08
2022-10-03T15:51:00.871Z,2.00
2022-10-03T15:53:43.854Z,2.38
2022-10-03T15:56:43.363Z,1.92
2022-10-03T15:59:37.331Z,2.22
2022-10-03T16:02:30.646Z,2.13
2022-10-03T16:05:06.162Z,1.83
2022-10-03T16:07:47.447Z,2.13
2022-10-03T16:11:21.813Z,2.53
2022-10-03T16:14:34.627Z,2.35
2022-10-03T16:17:19.472Z,2.70
2022-10-03T16:20:03.287Z,3.20
2022-10-03T16:22:51.726Z,3.05
2022-10-03T16:25:46.416Z,2.40
2022-10-03T16:28:59.672Z,2.15
2022-10-03T16:31:46.197Z,2.00
2022-10-03T16:34:28.790Z,1.90
2022-10-03T16:37:18.296Z,2.38
2022-10-03T16:40:07.317Z,2.58
2022-10-03T16:42:44.742Z,2.20
2022-10-03T16:45:39.361Z,2.40
2022-10-03T16:48:41.538Z,1.92
2022-10-03T16:51:23.165Z,2.03
2022-10-03T16:54:09.242Z,2.33
2022-10-03T16:56:50.210Z,2.73
2022-10-03T16:59:30.499Z,2.03
2022-10-03T17:02:20.364Z,2.05
2022-10-03T17:05:05.727Z,1.60
2022-10-03T17:07:56.845Z,2.15
2022-10-03T17:10:40.129Z,1.92
2022-10-03T17:13:19.508Z,2.00
2022-10-03T17:16:08.454Z,2.40
2022-10-03T17:18:44.742Z,2.20
2022-10-03T17:21:42.012Z,2.65
2022-10-03T17:24:37.200Z,2.80
2022-10-03T17:27:22.961Z,2.10
2022-10-03T17:30:04.437Z,2.10
2022-10-03T17:32:43.904Z,1.98
2022-10-03T17:35:51.063Z,2.05
2022-10-03T17:38:56.298Z,2.95
2022-10-03T17:41:43.713Z,2.65
2022-10-03T17:44:40.592Z,2.67
2022-10-03T17:50:25.923Z,2.85
2022-10-03T17:52:56.178Z,2.53
2022-10-03T17:55:27.513Z,2.63
2022-10-03T17:57:58.783Z,2.40
2022-10-03T18:00:54.738Z,2.10
2022-10-03T18:03:27.374Z,2.40
2022-10-03T18:06:40.617Z,2.08
2022-10-03T18:09:29.776Z,2.17
2022-10-03T18:12:39.306Z,2.20
2022-10-03T18:15:58.480Z,2.60
2022-10-03T18:18:50.837Z,2.53
2022-10-03T18:21:55.363Z,2.88
2022-10-03T18:24:32.561Z,2.42
2022-10-03T18:27:41.329Z,2.00
2022-10-03T18:31:03.112Z,2.88
2022-10-03T18:33:36.414Z,2.85
2022-10-03T18:36:16.424Z,2.45
2022-10-03T18:39:06.286Z,2.33
2022-10-03T18:41:48.130Z,2.50
2022-10-03T18:44:19.798Z,2.38
2022-10-03T18:46:59.418Z,2.65
2022-10-03T18:49:38.550Z,2.17
2022-10-03T18:52:21.539Z,2.83
2022-10-03T18:55:16.408Z,2.43
2022-10-03T18:58:31.793Z,1.95
2022-10-03T19:01:31.333Z,1.95
2022-10-03T19:04:07.810Z,2.15
2022-10-03T19:06:47.790Z,2.42
2022-10-03T19:09:35.262Z,2.78
2022-10-03T19:12:23.798Z,2.72
2022-10-03T19:15:04.910Z,2.35
2022-10-03T19:17:53.978Z,2.30
2022-10-03T19:20:30.208Z,2.53
2022-10-03T19:23:29.874Z,2.22
2022-10-03T19:26:26.021Z,2.28
2022-10-03T19:29:01.550Z,2.35
2022-10-03T19:31:43.524Z,2.42
2022-10-03T19:34:28.799Z,2.20
2022-10-03T19:37:06.031Z,2.30
2022-10-03T19:39:45.901Z,2.92
2022-10-03T19:42:25.008Z,3.15
2022-10-03T19:45:01.957Z,3.20
2022-10-03T19:47:44.729Z,2.70
2022-10-03T19:50:24.127Z,2.97
2022-10-03T19:52:59.320Z,2.97
2022-10-03T19:55:41.045Z,2.50
2022-10-03T19:58:24.906Z,2.80
2022-10-03T20:01:04.970Z,3.92
2022-10-03T20:03:58.361Z,4.63
2022-10-03T20:06:40.713Z,5.10
2022-10-03T20:09:23.104Z,7.07
2022-10-03T20:12:16.831Z,5.93
2022-10-03T20:14:43.981Z,3.90
2022-10-03T20:20:30.396Z,3.78
2022-10-03T20:23:25.971Z,7.00
2022-10-03T20:26:10.218Z,7.22
2022-10-03T20:29:17.412Z,5.32
2022-10-03T20:31:48.146Z,5.32
2022-10-03T20:34:25.429Z,4.82
2022-10-03T20:37:07.906Z,5.53
2022-10-03T20:39:39.698Z,7.65
2022-10-03T20:42:16.453Z,8.50
2022-10-03T20:45:01.254Z,6.15
2022-10-03T20:47:52.933Z,3.20
2022-10-03T20:50:31.206Z,5.20
2022-10-03T20:53:01.890Z,6.65
2022-10-03T20:55:52.734Z,8.50
2022-10-03T20:58:39.218Z,7.65
2022-10-03T21:01:27.986Z,6.80
2022-10-03T21:04:18.001Z,6.97
2022-10-03T21:07:35.539Z,6.15
2022-10-03T21:10:17.545Z,4.85
2022-10-03T21:12:49.654Z,5.93
2022-10-03T21:15:48.407Z,5.50
2022-10-03T21:18:37.922Z,4.28
2022-10-03T21:21:14.518Z,4.20
2022-10-03T21:24:03.844Z,4.03
2022-10-03T21:26:44.840Z,4.15
2022-10-03T21:29:28.333Z,4.43
2022-10-03T21:32:28.312Z,3.95
2022-10-03T21:35:06.358Z,5.00
2022-10-03T21:38:04.792Z,5.22
2022-10-03T21:40:52.139Z,5.90
2022-10-03T21:43:52.303Z,5.03
2022-10-03T21:46:27.555Z,4.40
2022-10-03T21:49:22.395Z,3.63
2022-10-03T21:52:17.623Z,4.07
2022-10-03T21:55:33.554Z,4.15
2022-10-03T21:58:30.125Z,3.50
2022-10-03T22:01:47.769Z,3.42
2022-10-03T22:04:26.564Z,3.20
2022-10-03T22:07:21.192Z,3.92
2022-10-03T22:10:02.227Z,3.47
2022-10-03T22:15:48.261Z,3.15
2022-10-03T22:18:20.613Z,3.22
2022-10-03T22:21:15.565Z,3.20
2022-10-03T22:23:49.102Z,3.38
2022-10-03T22:26:41.571Z,3.75
2022-10-03T22:29:27.532Z,2.85
2022-10-03T22:32:05.788Z,3.05
2022-10-03T22:34:59.316Z,3.08
2022-10-03T22:37:38.407Z,3.05
2022-10-03T22:40:17.171Z,3.17
2022-10-03T22:42:52.762Z,3.30
2022-10-03T22:45:39.136Z,3.40
2022-10-03T22:48:34.349Z,3.30
2022-10-03T22:51:22.813Z,3.53
2022-10-03T22:54:09.715Z,4.15
2022-10-03T22:56:48.550Z,3.25
2022-10-03T22:59:27.269Z,3.08
2022-10-03T23:02:01.543Z,3.22
2022-10-03T23:04:37.036Z,3.88
2022-10-03T23:07:35.882Z,3.10
2022-10-03T23:10:26.858Z,3.20
2022-10-03T23:13:09.505Z,3.85
2022-10-03T23:15:42.183Z,3.63
2022-10-03T23:18:11.370Z,2.90
2022-10-03T23:20:57.346Z,3.78
2022-10-03T23:23:54.817Z,3.78
2022-10-03T23:26:46.743Z,4.30
2022-10-03T23:29:32.259Z,4.80
2022-10-03T23:32:04.395Z,4.68
2022-10-03T23:34:50.220Z,4.97
2022-10-03T23:37:24.326Z,4.47
2022-10-03T23:40:03.227Z,3.65
2022-10-03T23:43:05.290Z,4.85
2022-10-03T23:45:38.362Z,4.07
2022-10-03T23:48:18.165Z,4.00
2022-10-03T23:51:08.398Z,4.15
2022-10-03T23:53:39.464Z,4.28
2022-10-03T23:56:30.504Z,4.47
2022-10-03T23:59:07.877Z,4.07
